sensor_id;sensor_type;location;lat;lon;timestamp;pressure;altitude;pressure_sealevel;temperature;humidity
48606;BME280;8482;54.396;18.590;2023-01-29T11:01:59;101526.38;;;4.34;78.52
48606;BME280;8482;54.396;18.590;2023-01-29T11:04:27;101518.50;;;4.34;79.21
48606;BME280;8482;54.396;18.590;2023-01-29T11:06:53;101522.75;;;4.37;78.95
48606;BME280;8482;54.396;18.590;2023-01-29T11:12:26;101508.28;;;4.49;78.16
48606;BME280;8482;54.396;18.590;2023-01-29T11:15:26;101508.09;;;4.53;78.67
48606;BME280;8482;54.396;18.590;2023-01-29T11:18:23;101487.78;;;4.57;78.35
48606;BME280;8482;54.396;18.590;2023-01-29T11:21:03;101483.31;;;4.59;78.12
48606;BME280;8482;54.396;18.590;2023-01-29T11:23:32;101484.97;;;4.62;78.23
48606;BME280;8482;54.396;18.590;2023-01-29T11:25:59;101476.03;;;4.66;77.80
48606;BME280;8482;54.396;18.590;2023-01-29T11:28:41;101475.97;;;4.67;78.03
48606;BME280;8482;54.396;18.590;2023-01-29T11:31:35;101502.19;;;4.69;77.41
48606;BME280;8482;54.396;18.590;2023-01-29T11:34:25;101492.41;;;4.72;77.29
48606;BME280;8482;54.396;18.590;2023-01-29T11:37:15;101467.09;;;4.70;77.24
48606;BME280;8482;54.396;18.590;2023-01-29T11:39:45;101481.75;;;4.75;77.94
48606;BME280;8482;54.396;18.590;2023-01-29T11:42:20;101479.06;;;4.77;77.41
48606;BME280;8482;54.396;18.590;2023-01-29T11:44:46;101479.06;;;4.77;77.03
48606;BME280;8482;54.396;18.590;2023-01-29T11:49:58;101466.97;;;4.73;77.70
48606;BME280;8482;54.396;18.590;2023-01-29T11:52:40;101481.88;;;4.72;77.43
48606;BME280;8482;54.396;18.590;2023-01-29T11:55:30;101463.53;;;4.71;77.26
48606;BME280;8482;54.396;18.590;2023-01-29T11:58:25;101474.25;;;4.66;77.67
48606;BME280;8482;54.396;18.590;2023-01-29T12:00:53;101487.38;;;4.66;77.65
48606;BME280;8482;54.396;18.590;2023-01-29T12:03:50;101469.91;;;4.65;77.97
48606;BME280;8482;54.396;18.590;2023-01-29T12:06:33;101466.25;;;4.69;78.17
48606;BME280;8482;54.396;18.590;2023-01-29T12:09:08;101463.53;;;4.71;78.42
48606;BME280;8482;54.396;18.590;2023-01-29T12:11:35;101468.78;;;4.71;78.44
48606;BME280;8482;54.396;18.590;2023-01-29T12:14:07;101465.41;;;4.69;78.02
48606;BME280;8482;54.396;18.590;2023-01-29T12:16:58;101466.13;;;4.72;78.46
48606;BME280;8482;54.396;18.590;2023-01-29T12:19:50;101440.66;;;4.73;77.98
48606;BME280;8482;54.396;18.590;2023-01-29T12:22:38;101445.09;;;4.72;77.57
48606;BME280;8482;54.396;18.590;2023-01-29T12:25:42;101435.50;;;4.71;78.03
48606;BME280;8482;54.396;18.590;2023-01-29T12:31:32;101414.25;;;4.76;78.35
48606;BME280;8482;54.396;18.590;2023-01-29T12:40:12;101404.75;;;4.73;78.53
48606;BME280;8482;54.396;18.590;2023-01-29T12:42:43;101394.16;;;4.75;79.11
48606;BME280;8482;54.396;18.590;2023-01-29T12:45:18;101390.59;;;4.76;78.73
48606;BME280;8482;54.396;18.590;2023-01-29T12:47:55;101385.44;;;4.74;78.65
48606;BME280;8482;54.396;18.590;2023-01-29T12:50:42;101384.44;;;4.77;78.26
48606;BME280;8482;54.396;18.590;2023-01-29T12:53:32;101372.91;;;4.80;78.70
48606;BME280;8482;54.396;18.590;2023-01-29T12:56:13;101364.97;;;4.81;78.48
48606;BME280;8482;54.396;18.590;2023-01-29T12:58:50;101384.00;;;4.86;78.12
48606;BME280;8482;54.396;18.590;2023-01-29T13:01:44;101351.41;;;4.90;78.06
48606;BME280;8482;54.396;18.590;2023-01-29T13:07:46;101344.22;;;4.94;77.23
48606;BME280;8482;54.396;18.590;2023-01-29T13:10:20;101352.91;;;4.96;77.40
48606;BME280;8482;54.396;18.590;2023-01-29T13:12:58;101359.09;;;4.95;77.23
48606;BME280;8482;54.396;18.590;2023-01-29T13:15:37;101360.00;;;4.94;77.41
48606;BME280;8482;54.396;18.590;2023-01-29T13:21:03;101361.84;;;4.92;76.81
48606;BME280;8482;54.396;18.590;2023-01-29T13:23:36;101358.16;;;4.96;77.19
48606;BME280;8482;54.396;18.590;2023-01-29T13:26:04;101370.31;;;4.99;77.90
48606;BME280;8482;54.396;18.590;2023-01-29T13:28:30;101358.03;;;4.99;77.66
48606;BME280;8482;54.396;18.590;2023-01-29T13:31:32;101354.69;;;4.96;77.71
48606;BME280;8482;54.396;18.590;2023-01-29T13:34:33;101355.44;;;4.98;77.45
48606;BME280;8482;54.396;18.590;2023-01-29T13:37:37;101360.66;;;4.99;77.39
48606;BME280;8482;54.396;18.590;2023-01-29T13:40:05;101362.72;;;4.93;77.02
48606;BME280;8482;54.396;18.590;2023-01-29T13:42:45;101344.53;;;4.88;77.57
48606;BME280;8482;54.396;18.590;2023-01-29T13:48:20;101343.03;;;4.82;77.37
48606;BME280;8482;54.396;18.590;2023-01-29T13:50:52;101339.44;;;4.83;78.12
48606;BME280;8482;54.396;18.590;2023-01-29T13:53:38;101336.69;;;4.86;78.25
48606;BME280;8482;54.396;18.590;2023-01-29T13:59:02;101341.47;;;4.97;78.52
48606;BME280;8482;54.396;18.590;2023-01-29T14:07:52;101362.59;;;5.15;77.61
48606;BME280;8482;54.396;18.590;2023-01-29T14:10:21;101350.19;;;5.17;77.49
48606;BME280;8482;54.396;18.590;2023-01-29T14:15:37;101357.91;;;5.21;76.67
48606;BME280;8482;54.396;18.590;2023-01-29T14:34:47;101342.13;;;5.21;76.15
48606;BME280;8482;54.396;18.590;2023-01-29T14:39:52;101346.72;;;5.16;76.61
48606;BME280;8482;54.396;18.590;2023-01-29T14:45:28;101332.88;;;5.13;76.32
48606;BME280;8482;54.396;18.590;2023-01-29T14:48:01;101336.44;;;5.12;76.01
48606;BME280;8482;54.396;18.590;2023-01-29T14:53:33;101334.06;;;5.05;76.47
48606;BME280;8482;54.396;18.590;2023-01-29T14:56:26;101335.22;;;5.00;76.25
48606;BME280;8482;54.396;18.590;2023-01-29T14:59:22;101324.19;;;4.91;76.27
48606;BME280;8482;54.396;18.590;2023-01-29T15:01:59;101327.09;;;4.85;76.41
48606;BME280;8482;54.396;18.590;2023-01-29T15:04:37;101320.13;;;4.84;76.98
48606;BME280;8482;54.396;18.590;2023-01-29T15:07:18;101321.06;;;4.83;77.30
48606;BME280;8482;54.396;18.590;2023-01-29T15:15:54;101298.63;;;4.76;77.33
48606;BME280;8482;54.396;18.590;2023-01-29T15:18:36;101292.50;;;4.75;77.51
48606;BME280;8482;54.396;18.590;2023-01-29T15:21:12;101292.50;;;4.75;77.68
48606;BME280;8482;54.396;18.590;2023-01-29T15:23:39;101272.47;;;4.73;77.30
48606;BME280;8482;54.396;18.590;2023-01-29T15:26:11;101277.72;;;4.73;77.41
48606;BME280;8482;54.396;18.590;2023-01-29T15:28:40;101280.47;;;4.70;77.77
48606;BME280;8482;54.396;18.590;2023-01-29T15:31:12;101278.63;;;4.72;77.71
48606;BME280;8482;54.396;18.590;2023-01-29T15:33:46;101281.28;;;4.72;78.13
48606;BME280;8482;54.396;18.590;2023-01-29T15:36:24;101275.16;;;4.71;77.55
48606;BME280;8482;54.396;18.590;2023-01-29T15:39:18;101271.69;;;4.71;78.20
48606;BME280;8482;54.396;18.590;2023-01-29T15:41:45;101268.13;;;4.72;77.62
48606;BME280;8482;54.396;18.590;2023-01-29T15:44:22;101261.16;;;4.71;78.04
48606;BME280;8482;54.396;18.590;2023-01-29T15:46:56;101262.81;;;4.73;77.69
48606;BME280;8482;54.396;18.590;2023-01-29T15:49:34;101267.22;;;4.73;78.00
48606;BME280;8482;54.396;18.590;2023-01-29T15:52:16;101252.22;;;4.75;78.10
48606;BME280;8482;54.396;18.590;2023-01-29T15:54:45;101261.81;;;4.76;77.52
48606;BME280;8482;54.396;18.590;2023-01-29T15:57:24;101269.63;;;4.78;77.73
48606;BME280;8482;54.396;18.590;2023-01-29T15:59:55;101267.91;;;4.76;78.01
48606;BME280;8482;54.396;18.590;2023-01-29T16:02:38;101255.63;;;4.77;78.39
48606;BME280;8482;54.396;18.590;2023-01-29T16:05:16;101262.66;;;4.76;77.39
48606;BME280;8482;54.396;18.590;2023-01-29T16:07:43;101246.97;;;4.75;77.41
48606;BME280;8482;54.396;18.590;2023-01-29T16:10:20;101250.47;;;4.75;77.79
48606;BME280;8482;54.396;18.590;2023-01-29T16:12:49;101247.84;;;4.75;77.30
48606;BME280;8482;54.396;18.590;2023-01-29T16:15:37;101238.16;;;4.76;77.35
48606;BME280;8482;54.396;18.590;2023-01-29T16:18:21;101245.13;;;4.77;77.85
48606;BME280;8482;54.396;18.590;2023-01-29T16:20:53;101231.19;;;4.75;77.06
48606;BME280;8482;54.396;18.590;2023-01-29T16:23:34;101239.31;;;4.70;77.50
48606;BME280;8482;54.396;18.590;2023-01-29T16:26:07;101241.16;;;4.68;77.41
48606;BME280;8482;54.396;18.590;2023-01-29T16:28:45;101242.06;;;4.67;77.76
48606;BME280;8482;54.396;18.590;2023-01-29T16:31:13;101234.25;;;4.66;78.45
48606;BME280;8482;54.396;18.590;2023-01-29T16:33:45;101236.88;;;4.66;77.77
48606;BME280;8482;54.396;18.590;2023-01-29T16:36:26;101239.53;;;4.66;77.90
48606;BME280;8482;54.396;18.590;2023-01-29T16:39:00;101231.56;;;4.67;77.85
48606;BME280;8482;54.396;18.590;2023-01-29T16:41:33;101233.34;;;4.67;78.05
48606;BME280;8482;54.396;18.590;2023-01-29T16:46:48;101215.00;;;4.65;78.37
48606;BME280;8482;54.396;18.590;2023-01-29T16:51:52;101215.00;;;4.65;78.59
48606;BME280;8482;54.396;18.590;2023-01-29T16:54:24;101205.41;;;4.64;78.39
48606;BME280;8482;54.396;18.590;2023-01-29T16:56:56;101205.41;;;4.64;78.79
48606;BME280;8482;54.396;18.590;2023-01-29T16:59:36;101200.16;;;4.64;78.58
48606;BME280;8482;54.396;18.590;2023-01-29T17:02:29;101201.09;;;4.63;78.76
48606;BME280;8482;54.396;18.590;2023-01-29T17:05:06;101197.59;;;4.63;78.14
48606;BME280;8482;54.396;18.590;2023-01-29T17:07:36;101202.88;;;4.63;78.62
48606;BME280;8482;54.396;18.590;2023-01-29T17:10:05;101202.88;;;4.63;78.60
48606;BME280;8482;54.396;18.590;2023-01-29T17:12:32;101195.84;;;4.63;78.70
48606;BME280;8482;54.396;18.590;2023-01-29T17:15:03;101187.88;;;4.65;78.46
48606;BME280;8482;54.396;18.590;2023-01-29T17:17:34;101190.59;;;4.63;78.52
48606;BME280;8482;54.396;18.590;2023-01-29T17:20:14;101184.47;;;4.63;78.90
48606;BME280;8482;54.396;18.590;2023-01-29T17:22:41;101175.81;;;4.60;78.63
48606;BME280;8482;54.396;18.590;2023-01-29T17:25:12;101185.53;;;4.58;79.19
48606;BME280;8482;54.396;18.590;2023-01-29T17:27:41;101173.31;;;4.57;79.35
48606;BME280;8482;54.396;18.590;2023-01-29T17:30:16;101177.66;;;4.58;79.12
48606;BME280;8482;54.396;18.590;2023-01-29T17:32:42;101178.44;;;4.60;80.16
48606;BME280;8482;54.396;18.590;2023-01-29T17:35:12;101171.47;;;4.59;79.05
48606;BME280;8482;54.396;18.590;2023-01-29T17:37:41;101166.06;;;4.63;79.53
48606;BME280;8482;54.396;18.590;2023-01-29T17:40:45;101149.38;;;4.64;80.09
48606;BME280;8482;54.396;18.590;2023-01-29T17:43:12;101152.94;;;4.63;79.53
48606;BME280;8482;54.396;18.590;2023-01-29T17:45:39;101139.81;;;4.63;79.55
48606;BME280;8482;54.396;18.590;2023-01-29T17:48:27;101141.38;;;4.67;80.66
48606;BME280;8482;54.396;18.590;2023-01-29T17:50:56;101125.50;;;4.68;79.92
48606;BME280;8482;54.396;18.590;2023-01-29T17:53:23;101131.56;;;4.70;80.24
48606;BME280;8482;54.396;18.590;2023-01-29T17:55:50;101115.69;;;4.72;80.05
48606;BME280;8482;54.396;18.590;2023-01-29T17:58:25;101106.97;;;4.71;80.12
48606;BME280;8482;54.396;18.590;2023-01-29T18:00:53;101106.84;;;4.74;79.73
48606;BME280;8482;54.396;18.590;2023-01-29T18:03:20;101101.63;;;4.73;79.73
48606;BME280;8482;54.396;18.590;2023-01-29T18:05:48;101096.38;;;4.73;79.34
48606;BME280;8482;54.396;18.590;2023-01-29T18:08:22;101089.41;;;4.72;79.83
48606;BME280;8482;54.396;18.590;2023-01-29T18:10:51;101086.00;;;4.70;79.77
48606;BME280;8482;54.396;18.590;2023-01-29T18:13:16;101086.97;;;4.69;79.52
48606;BME280;8482;54.396;18.590;2023-01-29T18:15:42;101079.09;;;4.69;79.69
48606;BME280;8482;54.396;18.590;2023-01-29T18:18:14;101085.09;;;4.71;79.46
48606;BME280;8482;54.396;18.590;2023-01-29T18:20:40;101082.44;;;4.71;79.32
48606;BME280;8482;54.396;18.590;2023-01-29T18:23:10;101070.31;;;4.68;79.11
48606;BME280;8482;54.396;18.590;2023-01-29T18:25:37;101073.03;;;4.67;79.13
48606;BME280;8482;54.396;18.590;2023-01-29T18:28:04;101066.78;;;4.69;79.77
48606;BME280;8482;54.396;18.590;2023-01-29T18:30:31;101069.31;;;4.71;79.39
48606;BME280;8482;54.396;18.590;2023-01-29T18:32:57;101065.84;;;4.70;79.01
48606;BME280;8482;54.396;18.590;2023-01-29T18:35:24;101057.97;;;4.70;79.51
48606;BME280;8482;54.396;18.590;2023-01-29T18:37:51;101050.91;;;4.71;78.88
48606;BME280;8482;54.396;18.590;2023-01-29T18:40:17;101052.63;;;4.72;79.15
48606;BME280;8482;54.396;18.590;2023-01-29T18:42:45;101042.13;;;4.72;78.95
48606;BME280;8482;54.396;18.590;2023-01-29T18:45:12;101049.06;;;4.73;79.77
48606;BME280;8482;54.396;18.590;2023-01-29T18:47:39;101023.91;;;4.69;78.35
48606;BME280;8482;54.396;18.590;2023-01-29T18:50:07;101014.06;;;4.72;78.73
48606;BME280;8482;54.396;18.590;2023-01-29T18:52:33;101031.38;;;4.76;78.55
48606;BME280;8482;54.396;18.590;2023-01-29T18:54:59;101006.88;;;4.76;79.11
48606;BME280;8482;54.396;18.590;2023-01-29T18:57:26;100997.13;;;4.78;79.61
48606;BME280;8482;54.396;18.590;2023-01-29T18:59:52;100996.22;;;4.79;79.32
48606;BME280;8482;54.396;18.590;2023-01-29T19:02:18;100994.38;;;4.81;79.01
48606;BME280;8482;54.396;18.590;2023-01-29T19:04:44;100989.00;;;4.83;78.54
48606;BME280;8482;54.396;18.590;2023-01-29T19:07:13;100989.00;;;4.83;78.97
48606;BME280;8482;54.396;18.590;2023-01-29T19:09:39;100984.59;;;4.83;78.88
48606;BME280;8482;54.396;18.590;2023-01-29T19:12:06;100980.22;;;4.84;79.05
48606;BME280;8482;54.396;18.590;2023-01-29T19:14:32;100979.19;;;4.86;78.87
48606;BME280;8482;54.396;18.590;2023-01-29T19:16:59;100981.66;;;4.89;78.83
48606;BME280;8482;54.396;18.590;2023-01-29T19:19:27;100979.03;;;4.89;78.67
48606;BME280;8482;54.396;18.590;2023-01-29T19:21:53;100976.41;;;4.89;78.79
48606;BME280;8482;54.396;18.590;2023-01-29T19:24:20;100961.66;;;4.87;78.38
48606;BME280;8482;54.396;18.590;2023-01-29T19:26:46;100970.38;;;4.87;78.66
48606;BME280;8482;54.396;18.590;2023-01-29T19:29:13;100964.34;;;4.85;78.61
48606;BME280;8482;54.396;18.590;2023-01-29T19:31:39;100952.91;;;4.86;78.90
48606;BME280;8482;54.396;18.590;2023-01-29T19:34:05;100965.06;;;4.89;78.66
48606;BME280;8482;54.396;18.590;2023-01-29T19:36:31;100954.53;;;4.89;78.91
48606;BME280;8482;54.396;18.590;2023-01-29T19:38:57;100955.38;;;4.89;78.38
48606;BME280;8482;54.396;18.590;2023-01-29T19:41:23;100950.03;;;4.91;78.48
48606;BME280;8482;54.396;18.590;2023-01-29T19:43:49;100943.94;;;4.90;78.25
48606;BME280;8482;54.396;18.590;2023-01-29T19:46:15;100936.06;;;4.90;78.64
48606;BME280;8482;54.396;18.590;2023-01-29T19:48:42;100937.66;;;4.93;78.31
48606;BME280;8482;54.396;18.590;2023-01-29T19:51:10;100926.31;;;4.93;78.33
48606;BME280;8482;54.396;18.590;2023-01-29T19:53:39;100921.06;;;4.93;78.51
48606;BME280;8482;54.396;18.590;2023-01-29T19:56:15;100916.78;;;4.90;77.89
48606;BME280;8482;54.396;18.590;2023-01-29T19:58:41;100907.28;;;4.87;77.69
48606;BME280;8482;54.396;18.590;2023-01-29T20:01:20;100905.59;;;4.86;77.82
48606;BME280;8482;54.396;18.590;2023-01-29T20:03:48;100899.50;;;4.86;78.24
48606;BME280;8482;54.396;18.590;2023-01-29T20:06:18;100881.16;;;4.84;77.05
48606;BME280;8482;54.396;18.590;2023-01-29T20:08:45;100875.31;;;4.79;77.88
48606;BME280;8482;54.396;18.590;2023-01-29T20:11:17;100872.06;;;4.74;77.37
48606;BME280;8482;54.396;18.590;2023-01-29T20:13:47;100871.47;;;4.69;77.19
48606;BME280;8482;54.396;18.590;2023-01-29T20:16:14;100869.06;;;4.64;77.37
48606;BME280;8482;54.396;18.590;2023-01-29T20:18:41;100868.31;;;4.62;77.41
48606;BME280;8482;54.396;18.590;2023-01-29T20:21:10;100859.66;;;4.60;78.05
48606;BME280;8482;54.396;18.590;2023-01-29T20:23:37;100856.16;;;4.59;78.23
48606;BME280;8482;54.396;18.590;2023-01-29T20:26:06;100867.47;;;4.62;77.79
48606;BME280;8482;54.396;18.590;2023-01-29T20:28:33;100848.22;;;4.61;78.40
48606;BME280;8482;54.396;18.590;2023-01-29T20:30:59;100847.47;;;4.59;77.85
48606;BME280;8482;54.396;18.590;2023-01-29T20:33:26;100859.56;;;4.62;77.77
48606;BME280;8482;54.396;18.590;2023-01-29T20:35:58;100856.03;;;4.63;78.29
48606;BME280;8482;54.396;18.590;2023-01-29T20:38:25;100850.75;;;4.63;78.45
48606;BME280;8482;54.396;18.590;2023-01-29T20:41:05;100848.13;;;4.63;78.42
48606;BME280;8482;54.396;18.590;2023-01-29T20:43:32;100844.59;;;4.64;78.43
48606;BME280;8482;54.396;18.590;2023-01-29T20:45:58;100842.09;;;4.60;77.76
48606;BME280;8482;54.396;18.590;2023-01-29T20:48:25;100840.50;;;4.58;77.58
48606;BME280;8482;54.396;18.590;2023-01-29T20:50:51;100830.91;;;4.57;77.48
48606;BME280;8482;54.396;18.590;2023-01-29T20:53:17;100829.22;;;4.56;77.50
48606;BME280;8482;54.396;18.590;2023-01-29T20:55:44;100824.97;;;4.53;77.36
48606;BME280;8482;54.396;18.590;2023-01-29T20:58:10;100809.47;;;4.49;76.65
48606;BME280;8482;54.396;18.590;2023-01-29T21:00:36;100814.78;;;4.47;77.20
48606;BME280;8482;54.396;18.590;2023-01-29T21:03:03;100809.69;;;4.44;77.76
48606;BME280;8482;54.396;18.590;2023-01-29T21:05:29;100800.97;;;4.43;77.47
48606;BME280;8482;54.396;18.590;2023-01-29T21:07:57;100789.69;;;4.41;77.29
48606;BME280;8482;54.396;18.590;2023-01-29T21:10:23;100782.16;;;4.35;76.63
48606;BME280;8482;54.396;18.590;2023-01-29T21:12:49;100808.63;;;4.30;77.18
48606;BME280;8482;54.396;18.590;2023-01-29T21:15:15;100813.13;;;4.28;76.96
48606;BME280;8482;54.396;18.590;2023-01-29T21:17:41;100782.69;;;4.24;77.21
48606;BME280;8482;54.396;18.590;2023-01-29T21:20:08;100799.53;;;4.20;76.73
48606;BME280;8482;54.396;18.590;2023-01-29T21:22:34;100761.25;;;4.16;77.41
48606;BME280;8482;54.396;18.590;2023-01-29T21:25:00;100757.66;;;4.17;78.02
48606;BME280;8482;54.396;18.590;2023-01-29T21:27:26;100748.97;;;4.17;77.82
48606;BME280;8482;54.396;18.590;2023-01-29T21:29:51;100755.13;;;4.16;77.81
48606;BME280;8482;54.396;18.590;2023-01-29T21:32:17;100757.84;;;4.14;77.65
48606;BME280;8482;54.396;18.590;2023-01-29T21:34:43;100734.03;;;4.17;78.16
48606;BME280;8482;54.396;18.590;2023-01-29T21:37:09;100740.84;;;4.21;78.17
48606;BME280;8482;54.396;18.590;2023-01-29T21:39:35;100731.94;;;4.24;78.24
48606;BME280;8482;54.396;18.590;2023-01-29T21:42:01;100733.56;;;4.26;78.01
48606;BME280;8482;54.396;18.590;2023-01-29T21:44:45;100708.31;;;4.24;78.15
48606;BME280;8482;54.396;18.590;2023-01-29T21:47:11;100711.03;;;4.22;77.77
48606;BME280;8482;54.396;18.590;2023-01-29T21:49:45;100713.81;;;4.19;77.34
48606;BME280;8482;54.396;18.590;2023-01-29T21:52:12;100713.03;;;4.17;77.77
48606;BME280;8482;54.396;18.590;2023-01-29T21:54:43;100714.91;;;4.15;77.89
48606;BME280;8482;54.396;18.590;2023-01-29T21:57:14;100706.28;;;4.13;77.87
48606;BME280;8482;54.396;18.590;2023-01-29T21:59:41;100715.91;;;4.12;77.72
48606;BME280;8482;54.396;18.590;2023-01-29T22:02:14;100707.09;;;4.13;78.04
48606;BME280;8482;54.396;18.590;2023-01-29T22:04:41;100705.41;;;4.12;77.89
48606;BME280;8482;54.396;18.590;2023-01-29T22:07:09;100690.53;;;4.13;78.33
48606;BME280;8482;54.396;18.590;2023-01-29T22:09:36;100695.69;;;4.14;78.52
48606;BME280;8482;54.396;18.590;2023-01-29T22:12:02;100691.28;;;4.15;78.40
48606;BME280;8482;54.396;18.590;2023-01-29T22:14:29;100727.19;;;4.14;78.70
48606;BME280;8482;54.396;18.590;2023-01-29T22:16:55;100680.03;;;4.13;78.45
48606;BME280;8482;54.396;18.590;2023-01-29T22:19:21;100676.47;;;4.14;77.99
48606;BME280;8482;54.396;18.590;2023-01-29T22:21:48;100663.34;;;4.14;77.85
48606;BME280;8482;54.396;18.590;2023-01-29T22:24:13;100651.91;;;4.15;78.04
48606;BME280;8482;54.396;18.590;2023-01-29T22:26:39;100646.66;;;4.15;77.92
48606;BME280;8482;54.396;18.590;2023-01-29T22:29:05;100634.38;;;4.16;78.15
48606;BME280;8482;54.396;18.590;2023-01-29T22:31:31;100643.94;;;4.17;78.08
48606;BME280;8482;54.396;18.590;2023-01-29T22:33:57;100619.47;;;4.16;77.82
48606;BME280;8482;54.396;18.590;2023-01-29T22:36:23;100603.88;;;4.13;78.09
48606;BME280;8482;54.396;18.590;2023-01-29T22:38:48;100608.38;;;4.11;77.59
48606;BME280;8482;54.396;18.590;2023-01-29T22:41:14;100600.66;;;4.08;78.14
48606;BME280;8482;54.396;18.590;2023-01-29T22:43:40;100596.31;;;4.07;77.75
